sensor_id;sensor_type;location;lat;lon;timestamp;pressure;altitude;pressure_sealevel;temperature;humidity
4767;BME280;2397;53.576;9.746;2023-01-10T00:01:19;100645.97;;;5.62;100.00
4767;BME280;2397;53.576;9.746;2023-01-10T00:03:45;100646.63;;;5.56;100.00
4767;BME280;2397;53.576;9.746;2023-01-10T00:06:12;100649.09;;;5.53;100.00
4767;BME280;2397;53.576;9.746;2023-01-10T00:08:38;100649.22;;;5.56;100.00
4767;BME280;2397;53.576;9.746;2023-01-10T00:11:05;100652.72;;;5.58;100.00
4767;BME280;2397;53.576;9.746;2023-01-10T00:13:54;100656.25;;;5.62;100.00
4767;BME280;2397;53.576;9.746;2023-01-10T00:16:20;100653.72;;;5.63;100.00
4767;BME280;2397;53.576;9.746;2023-01-10T00:18:48;100671.56;;;5.59;100.00
4767;BME280;2397;53.576;9.746;2023-01-10T00:21:14;100678.53;;;5.63;100.00
4767;BME280;2397;53.576;9.746;2023-01-10T00:23:41;100679.41;;;5.63;100.00
4767;BME280;2397;53.576;9.746;2023-01-10T00:26:09;100684.59;;;5.65;100.00
4767;BME280;2397;53.576;9.746;2023-01-10T00:28:36;100681.88;;;5.60;100.00
4767;BME280;2397;53.576;9.746;2023-01-10T00:31:04;100689.38;;;5.54;100.00
4767;BME280;2397;53.576;9.746;2023-01-10T00:33:33;100689.28;;;5.51;100.00
4767;BME280;2397;53.576;9.746;2023-01-10T00:36:00;100698.56;;;5.48;100.00
4767;BME280;2397;53.576;9.746;2023-01-10T00:38:27;100699.44;;;5.48;100.00
4767;BME280;2397;53.576;9.746;2023-01-10T00:40:56;100695.88;;;5.44;100.00
4767;BME280;2397;53.576;9.746;2023-01-10T00:43:22;100701.06;;;5.46;100.00
4767;BME280;2397;53.576;9.746;2023-01-10T00:46:08;100706.09;;;5.43;100.00
4767;BME280;2397;53.576;9.746;2023-01-10T00:48:35;100710.28;;;5.39;100.00
4767;BME280;2397;53.576;9.746;2023-01-10T00:51:02;100716.38;;;5.43;100.00
4767;BME280;2397;53.576;9.746;2023-01-10T00:53:28;100717.16;;;5.40;100.00
4767;BME280;2397;53.576;9.746;2023-01-10T00:55:55;100726.66;;;5.43;100.00
4767;BME280;2397;53.576;9.746;2023-01-10T00:58:22;100723.94;;;5.38;100.00
4767;BME280;2397;53.576;9.746;2023-01-10T01:00:49;100734.19;;;5.38;100.00
4767;BME280;2397;53.576;9.746;2023-01-10T01:03:18;100739.19;;;5.34;100.00
4767;BME280;2397;53.576;9.746;2023-01-10T01:05:46;100746.00;;;5.33;100.00
4767;BME280;2397;53.576;9.746;2023-01-10T01:08:13;100755.94;;;5.24;100.00
4767;BME280;2397;53.576;9.746;2023-01-10T01:10:41;100751.47;;;5.18;100.00
4767;BME280;2397;53.576;9.746;2023-01-10T01:13:16;100763.47;;;5.19;100.00
4767;BME280;2397;53.576;9.746;2023-01-10T01:15:43;100769.16;;;5.10;100.00
4767;BME280;2397;53.576;9.746;2023-01-10T01:18:19;100776.69;;;5.06;100.00
4767;BME280;2397;53.576;9.746;2023-01-10T01:20:46;100778.22;;;5.01;100.00
4767;BME280;2397;53.576;9.746;2023-01-10T01:23:14;100789.88;;;4.92;100.00
4767;BME280;2397;53.576;9.746;2023-01-10T01:25:41;100799.44;;;4.97;100.00
4767;BME280;2397;53.576;9.746;2023-01-10T01:28:11;100801.91;;;4.93;100.00
4767;BME280;2397;53.576;9.746;2023-01-10T01:30:37;100808.78;;;4.95;100.00
4767;BME280;2397;53.576;9.746;2023-01-10T01:33:04;100813.81;;;4.91;100.00
4767;BME280;2397;53.576;9.746;2023-01-10T01:35:30;100823.91;;;4.88;100.00
4767;BME280;2397;53.576;9.746;2023-01-10T01:37:58;100832.56;;;4.90;100.00
4767;BME280;2397;53.576;9.746;2023-01-10T01:40:25;100838.56;;;4.91;100.00
4767;BME280;2397;53.576;9.746;2023-01-10T01:42:51;100833.59;;;4.96;100.00
4767;BME280;2397;53.576;9.746;2023-01-10T01:45:37;100848.19;;;4.97;100.00
4767;BME280;2397;53.576;9.746;2023-01-10T01:53:23;100861.88;;;4.97;100.00
4767;BME280;2397;53.576;9.746;2023-01-10T01:55:55;100877.25;;;4.97;100.00
4767;BME280;2397;53.576;9.746;2023-01-10T01:58:26;100878.84;;;4.93;100.00
4767;BME280;2397;53.576;9.746;2023-01-10T02:00:54;100879.72;;;4.94;100.00
4767;BME280;2397;53.576;9.746;2023-01-10T02:03:21;100876.91;;;4.88;100.00
4767;BME280;2397;53.576;9.746;2023-01-10T02:05:47;100894.81;;;4.86;100.00
4767;BME280;2397;53.576;9.746;2023-01-10T02:08:15;100884.50;;;4.85;100.00
4767;BME280;2397;53.576;9.746;2023-01-10T02:10:50;100890.50;;;4.85;100.00
4767;BME280;2397;53.576;9.746;2023-01-10T02:13:22;100892.13;;;4.83;100.00
4767;BME280;2397;53.576;9.746;2023-01-10T02:15:49;100897.25;;;4.83;100.00
4767;BME280;2397;53.576;9.746;2023-01-10T02:18:16;100902.28;;;4.80;100.00
4767;BME280;2397;53.576;9.746;2023-01-10T02:24:15;100910.16;;;4.85;100.00
4767;BME280;2397;53.576;9.746;2023-01-10T02:27:19;100914.41;;;4.84;100.00
4767;BME280;2397;53.576;9.746;2023-01-10T02:32:37;100927.28;;;4.86;100.00
4767;BME280;2397;53.576;9.746;2023-01-10T02:38:16;100925.66;;;4.88;100.00
4767;BME280;2397;53.576;9.746;2023-01-10T02:40:56;100935.16;;;4.90;100.00
4767;BME280;2397;53.576;9.746;2023-01-10T02:43:31;100938.84;;;4.97;100.00
4767;BME280;2397;53.576;9.746;2023-01-10T02:46:04;100943.78;;;4.92;100.00
4767;BME280;2397;53.576;9.746;2023-01-10T02:48:32;100940.47;;;4.95;100.00
4767;BME280;2397;53.576;9.746;2023-01-10T02:51:07;100945.31;;;4.87;100.00
4767;BME280;2397;53.576;9.746;2023-01-10T02:53:40;100952.94;;;4.86;100.00
4767;BME280;2397;53.576;9.746;2023-01-10T02:56:27;100947.03;;;4.88;100.00
4767;BME280;2397;53.576;9.746;2023-01-10T03:05:28;100962.44;;;4.88;100.00
4767;BME280;2397;53.576;9.746;2023-01-10T03:10:50;100965.94;;;4.90;100.00
4767;BME280;2397;53.576;9.746;2023-01-10T03:13:26;100966.50;;;4.83;100.00
4767;BME280;2397;53.576;9.746;2023-01-10T03:15:56;100972.31;;;4.79;100.00
4767;BME280;2397;53.576;9.746;2023-01-10T03:18:29;100969.69;;;4.78;100.00
4767;BME280;2397;53.576;9.746;2023-01-10T03:20:58;100969.63;;;4.76;100.00
4767;BME280;2397;53.576;9.746;2023-01-10T03:23:28;100966.16;;;4.74;100.00
4767;BME280;2397;53.576;9.746;2023-01-10T03:25:57;100973.72;;;4.71;100.00
4767;BME280;2397;53.576;9.746;2023-01-10T03:28:28;100982.88;;;4.66;100.00
4767;BME280;2397;53.576;9.746;2023-01-10T03:31:09;100983.56;;;4.62;100.00
4767;BME280;2397;53.576;9.746;2023-01-10T03:33:36;100981.72;;;4.57;100.00
4767;BME280;2397;53.576;9.746;2023-01-10T03:38:56;100994.31;;;4.53;100.00
4767;BME280;2397;53.576;9.746;2023-01-10T03:44:25;101014.69;;;4.50;100.00
4767;BME280;2397;53.576;9.746;2023-01-10T03:47:20;101017.13;;;4.47;100.00
4767;BME280;2397;53.576;9.746;2023-01-10T03:49:49;101030.44;;;4.38;100.00
4767;BME280;2397;53.576;9.746;2023-01-10T03:52:19;101030.28;;;4.35;100.00
4767;BME280;2397;53.576;9.746;2023-01-10T03:54:46;101037.00;;;4.31;100.00
4767;BME280;2397;53.576;9.746;2023-01-10T03:57:21;101039.63;;;4.33;100.00
4767;BME280;2397;53.576;9.746;2023-01-10T03:59:51;101052.31;;;4.30;100.00
4767;BME280;2397;53.576;9.746;2023-01-10T04:02:18;101053.03;;;4.27;100.00
4767;BME280;2397;53.576;9.746;2023-01-10T04:04:45;101057.16;;;4.24;100.00
4767;BME280;2397;53.576;9.746;2023-01-10T04:07:11;101057.22;;;4.25;100.00
4767;BME280;2397;53.576;9.746;2023-01-10T04:09:37;101065.50;;;4.19;100.00
4767;BME280;2397;53.576;9.746;2023-01-10T04:12:04;101071.31;;;4.15;100.00
4767;BME280;2397;53.576;9.746;2023-01-10T04:14:30;101065.25;;;4.13;100.00
4767;BME280;2397;53.576;9.746;2023-01-10T04:16:57;101069.69;;;4.17;100.00
4767;BME280;2397;53.576;9.746;2023-01-10T04:19:24;101080.69;;;4.15;100.00
4767;BME280;2397;53.576;9.746;2023-01-10T04:21:51;101087.59;;;4.17;100.00
4767;BME280;2397;53.576;9.746;2023-01-10T04:24:17;101088.50;;;4.18;100.00
4767;BME280;2397;53.576;9.746;2023-01-10T04:26:44;101086.75;;;4.17;100.00
4767;BME280;2397;53.576;9.746;2023-01-10T04:29:10;101099.63;;;4.18;100.00
4767;BME280;2397;53.576;9.746;2023-01-10T04:31:37;101101.66;;;4.26;100.00
4767;BME280;2397;53.576;9.746;2023-01-10T04:34:06;101097.41;;;4.26;100.00
4767;BME280;2397;53.576;9.746;2023-01-10T04:36:32;101103.69;;;4.33;100.00
4767;BME280;2397;53.576;9.746;2023-01-10T04:38:58;101109.63;;;4.32;100.00
4767;BME280;2397;53.576;9.746;2023-01-10T04:41:25;101109.81;;;4.36;100.00
4767;BME280;2397;53.576;9.746;2023-01-10T04:43:51;101120.91;;;4.35;100.00
4767;BME280;2397;53.576;9.746;2023-01-10T04:46:18;101118.41;;;4.37;100.00
4767;BME280;2397;53.576;9.746;2023-01-10T04:48:44;101122.84;;;4.41;100.00
4767;BME280;2397;53.576;9.746;2023-01-10T04:51:10;101133.25;;;4.44;100.00
4767;BME280;2397;53.576;9.746;2023-01-10T04:53:37;101137.00;;;4.52;100.00
4767;BME280;2397;53.576;9.746;2023-01-10T04:56:06;101138.72;;;4.52;100.00
4767;BME280;2397;53.576;9.746;2023-01-10T04:58:36;101136.88;;;4.49;100.00
4767;BME280;2397;53.576;9.746;2023-01-10T05:01:23;101150.75;;;4.54;100.00
4767;BME280;2397;53.576;9.746;2023-01-10T05:03:51;101154.97;;;4.52;100.00
4767;BME280;2397;53.576;9.746;2023-01-10T05:06:19;101161.03;;;4.54;100.00
4767;BME280;2397;53.576;9.746;2023-01-10T05:08:46;101161.03;;;4.54;100.00
4767;BME280;2397;53.576;9.746;2023-01-10T05:11:13;101162.78;;;4.55;100.00
4767;BME280;2397;53.576;9.746;2023-01-10T05:13:39;101162.06;;;4.58;100.00
4767;BME280;2397;53.576;9.746;2023-01-10T05:16:07;101169.69;;;4.56;100.00
4767;BME280;2397;53.576;9.746;2023-01-10T05:18:33;101172.09;;;4.53;100.00
4767;BME280;2397;53.576;9.746;2023-01-10T05:21:05;101178.16;;;4.55;100.00
4767;BME280;2397;53.576;9.746;2023-01-10T05:23:32;101176.56;;;4.57;100.00
4767;BME280;2397;53.576;9.746;2023-01-10T05:26:09;101180.81;;;4.57;100.00
4767;BME280;2397;53.576;9.746;2023-01-10T05:28:37;101192.69;;;4.55;100.00
4767;BME280;2397;53.576;9.746;2023-01-10T05:31:12;101196.72;;;4.50;100.00
4767;BME280;2397;53.576;9.746;2023-01-10T05:33:43;101208.66;;;4.49;100.00
4767;BME280;2397;53.576;9.746;2023-01-10T05:36:10;101213.78;;;4.49;100.00
4767;BME280;2397;53.576;9.746;2023-01-10T05:38:36;101222.06;;;4.44;100.00
4767;BME280;2397;53.576;9.746;2023-01-10T05:41:03;101220.41;;;4.44;100.00
4767;BME280;2397;53.576;9.746;2023-01-10T05:43:29;101227.94;;;4.41;100.00
4767;BME280;2397;53.576;9.746;2023-01-10T05:45:55;101235.63;;;4.41;100.00
4767;BME280;2397;53.576;9.746;2023-01-10T05:48:22;101237.16;;;4.37;100.00
4767;BME280;2397;53.576;9.746;2023-01-10T05:50:49;101239.72;;;4.37;100.00
4767;BME280;2397;53.576;9.746;2023-01-10T05:53:17;101240.31;;;4.32;100.00
4767;BME280;2397;53.576;9.746;2023-01-10T05:55:51;101243.69;;;4.31;100.00
4767;BME280;2397;53.576;9.746;2023-01-10T05:58:18;101248.53;;;4.25;100.00
4767;BME280;2397;53.576;9.746;2023-01-10T06:00:44;101254.41;;;4.22;100.00
4767;BME280;2397;53.576;9.746;2023-01-10T06:03:11;101248.44;;;4.23;100.00
4767;BME280;2397;53.576;9.746;2023-01-10T06:05:37;101247.50;;;4.21;100.00
4767;BME280;2397;53.576;9.746;2023-01-10T06:08:04;101256.91;;;4.20;100.00
4767;BME280;2397;53.576;9.746;2023-01-10T06:10:30;101258.50;;;4.18;100.00
4767;BME280;2397;53.576;9.746;2023-01-10T06:12:56;101265.09;;;4.13;100.00
4767;BME280;2397;53.576;9.746;2023-01-10T06:15:23;101275.19;;;4.10;100.00
4767;BME280;2397;53.576;9.746;2023-01-10T06:17:49;101276.84;;;4.10;100.00
4767;BME280;2397;53.576;9.746;2023-01-10T06:20:16;101288.81;;;4.09;100.00
4767;BME280;2397;53.576;9.746;2023-01-10T06:22:42;101285.19;;;4.05;100.00
4767;BME280;2397;53.576;9.746;2023-01-10T06:25:10;101287.59;;;4.02;100.00
4767;BME280;2397;53.576;9.746;2023-01-10T06:27:40;101297.78;;;4.01;100.00
4767;BME280;2397;53.576;9.746;2023-01-10T06:30:09;101299.63;;;4.03;100.00
4767;BME280;2397;53.576;9.746;2023-01-10T06:32:35;101301.25;;;4.01;100.00
4767;BME280;2397;53.576;9.746;2023-01-10T06:35:03;101301.97;;;3.99;100.00
4767;BME280;2397;53.576;9.746;2023-01-10T06:37:30;101313.97;;;4.00;100.00
4767;BME280;2397;53.576;9.746;2023-01-10T06:39:57;101320.75;;;3.99;100.00
4767;BME280;2397;53.576;9.746;2023-01-10T06:42:23;101323.31;;;3.99;100.00
4767;BME280;2397;53.576;9.746;2023-01-10T06:44:49;101324.94;;;3.97;100.00
4767;BME280;2397;53.576;9.746;2023-01-10T06:47:16;101332.63;;;3.97;100.00
4767;BME280;2397;53.576;9.746;2023-01-10T06:49:42;101329.19;;;3.97;100.00
4767;BME280;2397;53.576;9.746;2023-01-10T06:52:09;101324.22;;;4.00;100.00
4767;BME280;2397;53.576;9.746;2023-01-10T06:54:35;101328.59;;;4.02;100.00
4767;BME280;2397;53.576;9.746;2023-01-10T06:57:01;101334.75;;;4.06;100.00
4767;BME280;2397;53.576;9.746;2023-01-10T06:59:28;101330.50;;;4.07;100.00
4767;BME280;2397;53.576;9.746;2023-01-10T07:01:54;101337.25;;;4.04;100.00
4767;BME280;2397;53.576;9.746;2023-01-10T07:04:21;101335.50;;;4.03;100.00
4767;BME280;2397;53.576;9.746;2023-01-10T07:06:47;101346.94;;;4.10;100.00
4767;BME280;2397;53.576;9.746;2023-01-10T07:09:13;101353.56;;;4.07;100.00
4767;BME280;2397;53.576;9.746;2023-01-10T07:11:40;101345.09;;;4.08;100.00
4767;BME280;2397;53.576;9.746;2023-01-10T07:14:06;101361.34;;;4.08;100.00
4767;BME280;2397;53.576;9.746;2023-01-10T07:16:34;101354.28;;;4.04;100.00
4767;BME280;2397;53.576;9.746;2023-01-10T07:19:01;101353.34;;;4.02;100.00
4767;BME280;2397;53.576;9.746;2023-01-10T07:21:27;101355.84;;;4.00;100.00
4767;BME280;2397;53.576;9.746;2023-01-10T07:23:54;101358.47;;;4.02;100.00
4767;BME280;2397;53.576;9.746;2023-01-10T07:26:20;101356.06;;;4.05;100.00
4767;BME280;2397;53.576;9.746;2023-01-10T07:28:49;101363.66;;;4.03;100.00
4767;BME280;2397;53.576;9.746;2023-01-10T07:31:18;101364.88;;;4.10;100.00
4767;BME280;2397;53.576;9.746;2023-01-10T07:33:45;101360.97;;;4.18;100.00
4767;BME280;2397;53.576;9.746;2023-01-10T07:36:11;101371.22;;;4.18;100.00
4767;BME280;2397;53.576;9.746;2023-01-10T07:38:38;101367.09;;;4.20;100.00
4767;BME280;2397;53.576;9.746;2023-01-10T07:41:04;101362.03;;;4.22;100.00
4767;BME280;2397;53.576;9.746;2023-01-10T07:43:32;101373.38;;;4.27;100.00
4767;BME280;2397;53.576;9.746;2023-01-10T07:45:59;101373.44;;;4.29;100.00
4767;BME280;2397;53.576;9.746;2023-01-10T07:48:26;101369.25;;;4.31;100.00
4767;BME280;2397;53.576;9.746;2023-01-10T07:50:58;101370.03;;;4.28;100.00
4767;BME280;2397;53.576;9.746;2023-01-10T07:53:26;101377.94;;;4.33;100.00
4767;BME280;2397;53.576;9.746;2023-01-10T07:55:57;101382.25;;;4.34;100.00
4767;BME280;2397;53.576;9.746;2023-01-10T07:58:24;101378.72;;;4.32;100.00
4767;BME280;2397;53.576;9.746;2023-01-10T08:00:50;101379.63;;;4.32;100.00
4767;BME280;2397;53.576;9.746;2023-01-10T08:03:17;101374.38;;;4.31;100.00
4767;BME280;2397;53.576;9.746;2023-01-10T08:05:43;101387.38;;;4.34;100.00
4767;BME280;2397;53.576;9.746;2023-01-10T08:08:10;101391.63;;;4.33;100.00
4767;BME280;2397;53.576;9.746;2023-01-10T08:10:38;101383.13;;;4.34;100.00
4767;BME280;2397;53.576;9.746;2023-01-10T08:13:05;101402.84;;;4.35;100.00
4767;BME280;2397;53.576;9.746;2023-01-10T08:15:44;101412.25;;;4.36;100.00
4767;BME280;2397;53.576;9.746;2023-01-10T08:18:13;101408.84;;;4.36;100.00
4767;BME280;2397;53.576;9.746;2023-01-10T08:20:39;101408.13;;;4.38;100.00
4767;BME280;2397;53.576;9.746;2023-01-10T08:23:06;101408.97;;;4.39;100.00
4767;BME280;2397;53.576;9.746;2023-01-10T08:25:32;101420.19;;;4.41;100.00
4767;BME280;2397;53.576;9.746;2023-01-10T08:27:59;101408.34;;;4.43;100.00
4767;BME280;2397;53.576;9.746;2023-01-10T08:30:25;101410.09;;;4.44;100.00
4767;BME280;2397;53.576;9.746;2023-01-10T08:32:52;101417.78;;;4.44;100.00
4767;BME280;2397;53.576;9.746;2023-01-10T08:35:18;101416.19;;;4.46;100.00
4767;BME280;2397;53.576;9.746;2023-01-10T08:37:45;101427.38;;;4.48;100.00
4767;BME280;2397;53.576;9.746;2023-01-10T08:40:11;101443.72;;;4.50;100.00
4767;BME280;2397;53.576;9.746;2023-01-10T08:42:38;101439.69;;;4.55;100.00
4767;BME280;2397;53.576;9.746;2023-01-10T08:45:05;101450.09;;;4.58;100.00
4767;BME280;2397;53.576;9.746;2023-01-10T08:47:31;101453.50;;;4.57;100.00
4767;BME280;2397;53.576;9.746;2023-01-10T08:50:00;101453.63;;;4.61;100.00
4767;BME280;2397;53.576;9.746;2023-01-10T08:52:27;101451.22;;;4.64;100.00
4767;BME280;2397;53.576;9.746;2023-01-10T08:54:53;101434.94;;;4.63;100.00
4767;BME280;2397;53.576;9.746;2023-01-10T08:57:20;101419.88;;;4.69;100.00
4767;BME280;2397;53.576;9.746;2023-01-10T08:59:46;101409.69;;;4.71;100.00
4767;BME280;2397;53.576;9.746;2023-01-10T09:02:13;101406.44;;;4.75;100.00
4767;BME280;2397;53.576;9.746;2023-01-10T09:04:40;101405.63;;;4.76;100.00
4767;BME280;2397;53.576;9.746;2023-01-10T09:07:06;101415.25;;;4.80;100.00
4767;BME280;2397;53.576;9.746;2023-01-10T09:09:32;101415.38;;;4.83;100.00
4767;BME280;2397;53.576;9.746;2023-01-10T09:11:59;101397.50;;;4.85;100.00
4767;BME280;2397;53.576;9.746;2023-01-10T09:14:25;101403.66;;;4.88;100.00
4767;BME280;2397;53.576;9.746;2023-01-10T09:16:52;101412.09;;;4.86;100.00
4767;BME280;2397;53.576;9.746;2023-01-10T09:19:18;101418.16;;;4.88;100.00
4767;BME280;2397;53.576;9.746;2023-01-10T09:21:45;101414.59;;;4.84;100.00
4767;BME280;2397;53.576;9.746;2023-01-10T09:24:11;101418.81;;;4.84;100.00
4767;BME280;2397;53.576;9.746;2023-01-10T09:26:38;101441.84;;;4.82;100.00
4767;BME280;2397;53.576;9.746;2023-01-10T09:29:05;101451.44;;;4.86;100.00
4767;BME280;2397;53.576;9.746;2023-01-10T09:31:31;101459.16;;;4.86;100.00
4767;BME280;2397;53.576;9.746;2023-01-10T09:33:57;101460.97;;;4.89;100.00
4767;BME280;2397;53.576;9.746;2023-01-10T09:36:24;101472.91;;;4.88;100.00
4767;BME280;2397;53.576;9.746;2023-01-10T09:38:50;101485.09;;;4.92;100.00
4767;BME280;2397;53.576;9.746;2023-01-10T09:44:03;101496.06;;;4.90;100.00
4767;BME280;2397;53.576;9.746;2023-01-10T09:49:41;101490.38;;;4.96;100.00
4767;BME280;2397;53.576;9.746;2023-01-10T09:52:25;101496.63;;;5.01;100.00
4767;BME280;2397;53.576;9.746;2023-01-10T09:54:54;101495.78;;;5.02;100.00
4767;BME280;2397;53.576;9.746;2023-01-10T09:57:22;101500.06;;;5.01;100.00
4767;BME280;2397;53.576;9.746;2023-01-10T09:59:51;101504.53;;;5.05;100.00
4767;BME280;2397;53.576;9.746;2023-01-10T10:02:29;101526.69;;;5.03;100.00
4767;BME280;2397;53.576;9.746;2023-01-10T10:05:22;101530.03;;;5.02;100.00
4767;BME280;2397;53.576;9.746;2023-01-10T10:07:59;101527.56;;;5.04;100.00
4767;BME280;2397;53.576;9.746;2023-01-10T10:10:37;101526.56;;;5.02;100.00
4767;BME280;2397;53.576;9.746;2023-01-10T10:13:20;101529.13;;;5.02;100.00
4767;BME280;2397;53.576;9.746;2023-01-10T10:16:24;101526.69;;;5.03;100.00
4767;BME280;2397;53.576;9.746;2023-01-10T10:19:07;101522.41;;;5.04;100.00
4767;BME280;2397;53.576;9.746;2023-01-10T10:31:15;101508.03;;;5.07;100.00
4767;BME280;2397;53.576;9.746;2023-01-10T10:36:49;101513.47;;;5.14;100.00
4767;BME280;2397;53.576;9.746;2023-01-10T10:39:21;101509.38;;;5.17;100.00
4767;BME280;2397;53.576;9.746;2023-01-10T10:41:52;101510.31;;;5.19;100.00
4767;BME280;2397;53.576;9.746;2023-01-10T10:44:29;101507.97;;;5.24;100.00
4767;BME280;2397;53.576;9.746;2023-01-10T10:46:57;101509.81;;;5.26;100.00
4767;BME280;2397;53.576;9.746;2023-01-10T10:49:42;101509.94;;;5.30;100.00
4767;BME280;2397;53.576;9.746;2023-01-10T10:52:26;101512.78;;;5.36;100.00
4767;BME280;2397;53.576;9.746;2023-01-10T10:54:56;101515.50;;;5.39;100.00
4767;BME280;2397;53.576;9.746;2023-01-10T10:57:26;101522.06;;;5.32;100.00
4767;BME280;2397;53.576;9.746;2023-01-10T10:59:54;101523.75;;;5.32;100.00
4767;BME280;2397;53.576;9.746;2023-01-10T11:02:30;101514.34;;;5.32;100.00
4767;BME280;2397;53.576;9.746;2023-01-10T11:04:59;101526.31;;;5.32;100.00
4767;BME280;2397;53.576;9.746;2023-01-10T11:07:32;101528.97;;;5.33;100.00
4767;BME280;2397;53.576;9.746;2023-01-10T11:10:08;101530.91;;;5.39;100.00
4767;BME280;2397;53.576;9.746;2023-01-10T11:12:45;101525.63;;;5.36;100.00
4767;BME280;2397;53.576;9.746;2023-01-10T11:15:43;101536.16;;;5.40;100.00
4767;BME280;2397;53.576;9.746;2023-01-10T11:18:16;101537.94;;;5.43;100.00
4767;BME280;2397;53.576;9.746;2023-01-10T11:23:28;101527.81;;;5.46;100.00
4767;BME280;2397;53.576;9.746;2023-01-10T11:25:58;101538.03;;;5.44;100.00
4767;BME280;2397;53.576;9.746;2023-01-10T11:28:29;101534.59;;;5.44;100.00
4767;BME280;2397;53.576;9.746;2023-01-10T11:30:57;101526.38;;;5.51;100.00
4767;BME280;2397;53.576;9.746;2023-01-10T11:33:28;101528.94;;;5.51;100.00
4767;BME280;2397;53.576;9.746;2023-01-10T11:36:02;101534.06;;;5.51;100.00
4767;BME280;2397;53.576;9.746;2023-01-10T11:38:30;101528.03;;;5.51;100.00
4767;BME280;2397;53.576;9.746;2023-01-10T11:43:36;101537.59;;;5.53;100.00
4767;BME280;2397;53.576;9.746;2023-01-10T11:46:15;101539.41;;;5.56;100.00
4767;BME280;2397;53.576;9.746;2023-01-10T11:48:47;101523.28;;;5.58;100.00
4767;BME280;2397;53.576;9.746;2023-01-10T11:51:59;101526.84;;;5.62;100.00
4767;BME280;2397;53.576;9.746;2023-01-10T11:54:27;101527.06;;;5.67;100.00
4767;BME280;2397;53.576;9.746;2023-01-10T11:57:06;101521.00;;;5.65;100.00
4767;BME280;2397;53.576;9.746;2023-01-10T11:59:33;101520.31;;;5.69;100.00
4767;BME280;2397;53.576;9.746;2023-01-10T12:02:02;101530.09;;;5.76;100.00
4767;BME280;2397;53.576;9.746;2023-01-10T12:04:33;101515.59;;;5.78;100.00
4767;BME280;2397;53.576;9.746;2023-01-10T12:07:08;101522.50;;;5.79;100.00
4767;BME280;2397;53.576;9.746;2023-01-10T12:09:42;101521.59;;;5.78;100.00
4767;BME280;2397;53.576;9.746;2023-01-10T12:14:35;101522.66;;;5.82;100.00
4767;BME280;2397;53.576;9.746;2023-01-10T12:17:02;101517.50;;;5.82;100.00
4767;BME280;2397;53.576;9.746;2023-01-10T12:19:28;101519.19;;;5.81;100.00
4767;BME280;2397;53.576;9.746;2023-01-10T12:22:01;101520.94;;;5.83;100.00
4767;BME280;2397;53.576;9.746;2023-01-10T12:24:32;101519.09;;;5.80;100.00
4767;BME280;2397;53.576;9.746;2023-01-10T12:27:02;101512.50;;;5.85;100.00
4767;BME280;2397;53.576;9.746;2023-01-10T12:29:35;101515.34;;;5.91;100.00
4767;BME280;2397;53.576;9.746;2023-01-10T12:32:06;101518.13;;;5.96;100.00
4767;BME280;2397;53.576;9.746;2023-01-10T12:34:45;101514.84;;;5.98;100.00
4767;BME280;2397;53.576;9.746;2023-01-10T12:37:20;101516.41;;;5.96;100.00
4767;BME280;2397;53.576;9.746;2023-01-10T12:39:55;101514.84;;;5.98;100.00
4767;BME280;2397;53.576;9.746;2023-01-10T12:42:40;101515.78;;;6.01;100.00
4767;BME280;2397;53.576;9.746;2023-01-10T12:45:32;101519.38;;;6.04;100.00
4767;BME280;2397;53.576;9.746;2023-01-10T12:50:50;101503.91;;;6.03;100.00
4767;BME280;2397;53.576;9.746;2023-01-10T12:53:29;101504.03;;;6.06;100.00
4767;BME280;2397;53.576;9.746;2023-01-10T12:55:59;101499.81;;;6.08;100.00
4767;BME280;2397;53.576;9.746;2023-01-10T12:58:37;101495.84;;;6.14;100.00
4767;BME280;2397;53.576;9.746;2023-01-10T13:01:06;101496.97;;;6.21;100.00
4767;BME280;2397;53.576;9.746;2023-01-10T13:03:34;101507.47;;;6.26;100.00
4767;BME280;2397;53.576;9.746;2023-01-10T13:06:01;101507.66;;;6.30;100.00
4767;BME280;2397;53.576;9.746;2023-01-10T13:08:32;101508.75;;;6.36;100.00
4767;BME280;2397;53.576;9.746;2023-01-10T13:11:00;101503.66;;;6.37;100.00
4767;BME280;2397;53.576;9.746;2023-01-10T13:13:36;101503.84;;;6.42;100.00
4767;BME280;2397;53.576;9.746;2023-01-10T13:16:27;101497.78;;;6.40;100.00
4767;BME280;2397;53.576;9.746;2023-01-10T13:19:20;101501.22;;;6.40;100.00
4767;BME280;2397;53.576;9.746;2023-01-10T13:21:47;101500.34;;;6.40;100.00
4767;BME280;2397;53.576;9.746;2023-01-10T13:26:55;101490.00;;;6.38;100.00
4767;BME280;2397;53.576;9.746;2023-01-10T13:29:24;101492.50;;;6.37;100.00
4767;BME280;2397;53.576;9.746;2023-01-10T13:31:52;101494.13;;;6.35;100.00
4767;BME280;2397;53.576;9.746;2023-01-10T13:34:25;101505.22;;;6.33;100.00
4767;BME280;2397;53.576;9.746;2023-01-10T13:36:59;101507.66;;;6.30;100.00
4767;BME280;2397;53.576;9.746;2023-01-10T13:39:35;101507.72;;;6.32;100.00
4767;BME280;2397;53.576;9.746;2023-01-10T14:01:24;101529.72;;;6.25;100.00
4767;BME280;2397;53.576;9.746;2023-01-10T14:04:37;101521.88;;;6.22;100.00
4767;BME280;2397;53.576;9.746;2023-01-10T14:07:14;101516.69;;;6.21;100.00
4767;BME280;2397;53.576;9.746;2023-01-10T14:09:45;101519.44;;;6.25;100.00
4767;BME280;2397;53.576;9.746;2023-01-10T14:12:26;101525.53;;;6.27;100.00
4767;BME280;2397;53.576;9.746;2023-01-10T14:15:27;101518.69;;;6.28;100.00
4767;BME280;2397;53.576;9.746;2023-01-10T14:18:01;101514.97;;;6.21;100.00
4767;BME280;2397;53.576;9.746;2023-01-10T14:20:30;101516.53;;;6.18;100.00
4767;BME280;2397;53.576;9.746;2023-01-10T14:25:54;101510.50;;;6.17;100.00
4767;BME280;2397;53.576;9.746;2023-01-10T14:28:32;101510.38;;;6.14;100.00
4767;BME280;2397;53.576;9.746;2023-01-10T14:31:21;101495.84;;;6.14;100.00
4767;BME280;2397;53.576;9.746;2023-01-10T14:33:48;101488.06;;;6.13;100.00
4767;BME280;2397;53.576;9.746;2023-01-10T14:36:23;101490.56;;;6.11;100.00
4767;BME280;2397;53.576;9.746;2023-01-10T14:38:55;101487.84;;;6.08;100.00
4767;BME280;2397;53.576;9.746;2023-01-10T14:41:37;101487.03;;;6.09;100.00
4767;BME280;2397;53.576;9.746;2023-01-10T14:44:22;101482.63;;;6.07;100.00
4767;BME280;2397;53.576;9.746;2023-01-10T14:46:56;101484.41;;;6.08;100.00
4767;BME280;2397;53.576;9.746;2023-01-10T14:49:33;101478.25;;;6.04;100.00
4767;BME280;2397;53.576;9.746;2023-01-10T14:52:17;101480.13;;;6.08;100.00